sensor_id;sensor_type;location;lat;lon;timestamp;P1;durP1;ratioP1;P2;durP2;ratioP2
7047;SDS011;3565;53.254;10.352;2022-07-06T00:01:27;4.13;;;2.53;;
7047;SDS011;3565;53.254;10.352;2022-07-06T00:04:06;3.53;;;2.40;;
7047;SDS011;3565;53.254;10.352;2022-07-06T00:06:37;2.67;;;2.47;;
7047;SDS011;3565;53.254;10.352;2022-07-06T00:09:06;3.43;;;2.60;;
7047;SDS011;3565;53.254;10.352;2022-07-06T00:11:35;5.47;;;2.40;;
7047;SDS011;3565;53.254;10.352;2022-07-06T00:16:41;3.43;;;2.30;;
7047;SDS011;3565;53.254;10.352;2022-07-06T00:19:10;4.80;;;2.70;;
7047;SDS011;3565;53.254;10.352;2022-07-06T00:21:39;7.43;;;2.50;;
7047;SDS011;3565;53.254;10.352;2022-07-06T00:24:09;5.93;;;2.67;;
7047;SDS011;3565;53.254;10.352;2022-07-06T00:26:38;4.27;;;2.40;;
7047;SDS011;3565;53.254;10.352;2022-07-06T00:29:07;4.63;;;2.93;;
7047;SDS011;3565;53.254;10.352;2022-07-06T00:31:36;4.47;;;2.57;;
7047;SDS011;3565;53.254;10.352;2022-07-06T00:34:05;6.90;;;2.67;;
7047;SDS011;3565;53.254;10.352;2022-07-06T00:36:34;6.33;;;2.60;;
7047;SDS011;3565;53.254;10.352;2022-07-06T00:39:03;4.97;;;2.67;;
7047;SDS011;3565;53.254;10.352;2022-07-06T00:41:32;5.00;;;2.63;;
7047;SDS011;3565;53.254;10.352;2022-07-06T00:44:05;4.60;;;2.90;;
7047;SDS011;3565;53.254;10.352;2022-07-06T00:46:35;5.07;;;2.93;;
7047;SDS011;3565;53.254;10.352;2022-07-06T00:49:04;4.97;;;2.67;;
7047;SDS011;3565;53.254;10.352;2022-07-06T00:51:43;6.37;;;2.90;;
7047;SDS011;3565;53.254;10.352;2022-07-06T00:54:12;7.60;;;3.07;;
7047;SDS011;3565;53.254;10.352;2022-07-06T00:56:50;3.77;;;2.33;;
7047;SDS011;3565;53.254;10.352;2022-07-06T00:59:19;7.10;;;2.80;;
7047;SDS011;3565;53.254;10.352;2022-07-06T01:01:49;6.37;;;2.60;;
7047;SDS011;3565;53.254;10.352;2022-07-06T01:04:27;4.27;;;2.97;;
7047;SDS011;3565;53.254;10.352;2022-07-06T01:06:58;5.93;;;3.07;;
7047;SDS011;3565;53.254;10.352;2022-07-06T01:09:27;4.57;;;2.80;;
7047;SDS011;3565;53.254;10.352;2022-07-06T01:11:56;4.53;;;2.87;;
7047;SDS011;3565;53.254;10.352;2022-07-06T01:14:26;5.97;;;3.00;;
7047;SDS011;3565;53.254;10.352;2022-07-06T01:16:55;5.90;;;2.77;;
7047;SDS011;3565;53.254;10.352;2022-07-06T01:19:25;4.07;;;2.90;;
7047;SDS011;3565;53.254;10.352;2022-07-06T01:21:53;5.47;;;2.83;;
7047;SDS011;3565;53.254;10.352;2022-07-06T01:24:23;4.90;;;2.70;;
7047;SDS011;3565;53.254;10.352;2022-07-06T01:26:51;4.67;;;2.77;;
7047;SDS011;3565;53.254;10.352;2022-07-06T01:29:21;4.90;;;2.60;;
7047;SDS011;3565;53.254;10.352;2022-07-06T01:31:50;4.30;;;2.73;;
7047;SDS011;3565;53.254;10.352;2022-07-06T01:34:19;4.20;;;2.70;;
7047;SDS011;3565;53.254;10.352;2022-07-06T01:36:48;4.87;;;2.80;;
7047;SDS011;3565;53.254;10.352;2022-07-06T01:39:17;5.10;;;2.40;;
7047;SDS011;3565;53.254;10.352;2022-07-06T01:41:46;4.37;;;2.70;;
7047;SDS011;3565;53.254;10.352;2022-07-06T01:44:15;6.30;;;2.90;;
7047;SDS011;3565;53.254;10.352;2022-07-06T01:46:43;4.73;;;2.87;;
7047;SDS011;3565;53.254;10.352;2022-07-06T01:49:12;6.77;;;3.20;;
7047;SDS011;3565;53.254;10.352;2022-07-06T01:51:41;6.27;;;2.63;;
7047;SDS011;3565;53.254;10.352;2022-07-06T01:54:10;5.60;;;2.70;;
7047;SDS011;3565;53.254;10.352;2022-07-06T01:56:39;5.90;;;2.90;;
7047;SDS011;3565;53.254;10.352;2022-07-06T01:59:07;5.57;;;2.67;;
7047;SDS011;3565;53.254;10.352;2022-07-06T02:01:36;6.30;;;2.87;;
7047;SDS011;3565;53.254;10.352;2022-07-06T02:04:05;4.43;;;2.70;;
7047;SDS011;3565;53.254;10.352;2022-07-06T02:06:34;3.77;;;2.40;;
7047;SDS011;3565;53.254;10.352;2022-07-06T02:09:03;5.90;;;2.87;;
7047;SDS011;3565;53.254;10.352;2022-07-06T02:11:32;5.10;;;3.10;;
7047;SDS011;3565;53.254;10.352;2022-07-06T02:14:01;6.07;;;2.80;;
7047;SDS011;3565;53.254;10.352;2022-07-06T02:16:30;6.27;;;3.27;;
7047;SDS011;3565;53.254;10.352;2022-07-06T02:18:59;5.63;;;3.17;;
7047;SDS011;3565;53.254;10.352;2022-07-06T02:21:28;6.83;;;2.63;;
7047;SDS011;3565;53.254;10.352;2022-07-06T02:23:57;3.93;;;2.83;;
7047;SDS011;3565;53.254;10.352;2022-07-06T02:26:27;6.17;;;3.07;;
7047;SDS011;3565;53.254;10.352;2022-07-06T02:28:56;6.23;;;2.83;;
7047;SDS011;3565;53.254;10.352;2022-07-06T02:31:24;7.67;;;2.77;;
7047;SDS011;3565;53.254;10.352;2022-07-06T02:33:53;6.17;;;2.80;;
7047;SDS011;3565;53.254;10.352;2022-07-06T02:36:22;5.63;;;2.80;;
7047;SDS011;3565;53.254;10.352;2022-07-06T02:38:51;6.23;;;2.90;;
7047;SDS011;3565;53.254;10.352;2022-07-06T02:41:20;4.03;;;2.67;;
7047;SDS011;3565;53.254;10.352;2022-07-06T02:43:49;3.80;;;2.70;;
7047;SDS011;3565;53.254;10.352;2022-07-06T02:46:18;5.17;;;3.27;;
7047;SDS011;3565;53.254;10.352;2022-07-06T02:48:47;5.13;;;3.10;;
7047;SDS011;3565;53.254;10.352;2022-07-06T02:51:16;4.30;;;2.50;;
7047;SDS011;3565;53.254;10.352;2022-07-06T02:53:43;4.43;;;2.60;;
7047;SDS011;3565;53.254;10.352;2022-07-06T02:56:12;4.67;;;2.80;;
7047;SDS011;3565;53.254;10.352;2022-07-06T02:58:41;5.73;;;2.70;;
7047;SDS011;3565;53.254;10.352;2022-07-06T03:01:10;5.00;;;2.80;;
7047;SDS011;3565;53.254;10.352;2022-07-06T03:03:39;6.40;;;2.57;;
7047;SDS011;3565;53.254;10.352;2022-07-06T03:06:07;7.30;;;2.73;;
7047;SDS011;3565;53.254;10.352;2022-07-06T03:08:36;5.40;;;2.70;;
7047;SDS011;3565;53.254;10.352;2022-07-06T03:11:05;6.60;;;2.90;;
7047;SDS011;3565;53.254;10.352;2022-07-06T03:13:34;5.73;;;3.00;;
7047;SDS011;3565;53.254;10.352;2022-07-06T03:16:03;6.40;;;3.07;;
7047;SDS011;3565;53.254;10.352;2022-07-06T03:18:32;8.83;;;2.80;;
7047;SDS011;3565;53.254;10.352;2022-07-06T03:21:01;5.87;;;2.90;;
7047;SDS011;3565;53.254;10.352;2022-07-06T03:23:30;3.67;;;2.60;;
7047;SDS011;3565;53.254;10.352;2022-07-06T03:25:59;5.20;;;2.60;;
7047;SDS011;3565;53.254;10.352;2022-07-06T03:28:28;4.30;;;2.60;;
7047;SDS011;3565;53.254;10.352;2022-07-06T03:30:56;3.90;;;2.57;;
7047;SDS011;3565;53.254;10.352;2022-07-06T03:33:25;7.20;;;2.70;;
7047;SDS011;3565;53.254;10.352;2022-07-06T03:35:54;5.20;;;2.80;;
7047;SDS011;3565;53.254;10.352;2022-07-06T03:38:23;4.93;;;2.60;;
7047;SDS011;3565;53.254;10.352;2022-07-06T03:40:52;6.57;;;2.50;;
7047;SDS011;3565;53.254;10.352;2022-07-06T03:43:21;6.23;;;2.60;;
7047;SDS011;3565;53.254;10.352;2022-07-06T03:45:50;6.60;;;2.53;;
7047;SDS011;3565;53.254;10.352;2022-07-06T03:48:19;4.27;;;2.63;;
7047;SDS011;3565;53.254;10.352;2022-07-06T03:50:48;3.67;;;2.30;;
7047;SDS011;3565;53.254;10.352;2022-07-06T03:53:16;5.87;;;2.50;;
7047;SDS011;3565;53.254;10.352;2022-07-06T03:55:45;6.80;;;2.70;;
7047;SDS011;3565;53.254;10.352;2022-07-06T03:58:16;7.13;;;3.00;;
7047;SDS011;3565;53.254;10.352;2022-07-06T04:00:45;7.30;;;2.90;;
7047;SDS011;3565;53.254;10.352;2022-07-06T04:03:14;7.13;;;2.63;;
7047;SDS011;3565;53.254;10.352;2022-07-06T04:05:43;5.47;;;2.40;;
7047;SDS011;3565;53.254;10.352;2022-07-06T04:08:12;7.07;;;3.33;;
7047;SDS011;3565;53.254;10.352;2022-07-06T04:10:40;4.10;;;2.50;;
7047;SDS011;3565;53.254;10.352;2022-07-06T04:13:09;4.87;;;2.53;;
7047;SDS011;3565;53.254;10.352;2022-07-06T04:15:38;6.40;;;2.60;;
7047;SDS011;3565;53.254;10.352;2022-07-06T04:18:07;6.07;;;2.80;;
7047;SDS011;3565;53.254;10.352;2022-07-06T04:20:36;5.30;;;2.30;;
7047;SDS011;3565;53.254;10.352;2022-07-06T04:23:05;7.23;;;2.37;;
7047;SDS011;3565;53.254;10.352;2022-07-06T04:25:34;3.23;;;2.50;;
7047;SDS011;3565;53.254;10.352;2022-07-06T04:28:03;5.10;;;2.60;;
7047;SDS011;3565;53.254;10.352;2022-07-06T04:30:32;5.17;;;2.40;;
7047;SDS011;3565;53.254;10.352;2022-07-06T04:33:03;5.30;;;2.40;;
7047;SDS011;3565;53.254;10.352;2022-07-06T04:35:34;7.07;;;2.97;;
7047;SDS011;3565;53.254;10.352;2022-07-06T04:38:07;6.40;;;2.50;;
7047;SDS011;3565;53.254;10.352;2022-07-06T04:40:36;4.93;;;2.57;;
7047;SDS011;3565;53.254;10.352;2022-07-06T04:43:05;5.30;;;2.33;;
7047;SDS011;3565;53.254;10.352;2022-07-06T04:45:34;5.87;;;2.40;;
7047;SDS011;3565;53.254;10.352;2022-07-06T04:48:03;5.27;;;2.50;;
7047;SDS011;3565;53.254;10.352;2022-07-06T04:50:34;6.60;;;2.60;;
7047;SDS011;3565;53.254;10.352;2022-07-06T04:53:03;6.70;;;2.80;;
7047;SDS011;3565;53.254;10.352;2022-07-06T04:55:32;3.30;;;1.97;;
7047;SDS011;3565;53.254;10.352;2022-07-06T04:58:01;3.83;;;2.23;;
7047;SDS011;3565;53.254;10.352;2022-07-06T05:00:30;7.17;;;2.43;;
7047;SDS011;3565;53.254;10.352;2022-07-06T05:02:58;2.73;;;2.10;;
7047;SDS011;3565;53.254;10.352;2022-07-06T05:05:27;4.40;;;2.33;;
7047;SDS011;3565;53.254;10.352;2022-07-06T05:07:56;9.17;;;2.43;;
7047;SDS011;3565;53.254;10.352;2022-07-06T05:10:25;4.30;;;2.13;;
7047;SDS011;3565;53.254;10.352;2022-07-06T05:12:54;3.60;;;2.03;;
7047;SDS011;3565;53.254;10.352;2022-07-06T05:15:23;4.17;;;1.90;;
7047;SDS011;3565;53.254;10.352;2022-07-06T05:17:52;3.13;;;1.80;;
7047;SDS011;3565;53.254;10.352;2022-07-06T05:20:21;4.60;;;2.00;;
7047;SDS011;3565;53.254;10.352;2022-07-06T05:22:49;5.23;;;1.63;;
7047;SDS011;3565;53.254;10.352;2022-07-06T05:25:19;5.33;;;1.70;;
7047;SDS011;3565;53.254;10.352;2022-07-06T05:27:48;2.93;;;2.03;;
7047;SDS011;3565;53.254;10.352;2022-07-06T05:30:17;4.40;;;2.00;;
7047;SDS011;3565;53.254;10.352;2022-07-06T05:32:46;2.70;;;1.80;;
7047;SDS011;3565;53.254;10.352;2022-07-06T05:35:15;4.90;;;1.97;;
7047;SDS011;3565;53.254;10.352;2022-07-06T05:37:44;3.53;;;1.90;;
7047;SDS011;3565;53.254;10.352;2022-07-06T05:40:13;2.93;;;1.67;;
7047;SDS011;3565;53.254;10.352;2022-07-06T05:42:42;4.57;;;1.90;;
7047;SDS011;3565;53.254;10.352;2022-07-06T05:45:11;5.53;;;1.90;;
7047;SDS011;3565;53.254;10.352;2022-07-06T05:47:40;3.63;;;2.03;;
7047;SDS011;3565;53.254;10.352;2022-07-06T05:50:27;6.00;;;1.90;;
7047;SDS011;3565;53.254;10.352;2022-07-06T05:52:56;3.60;;;1.90;;
7047;SDS011;3565;53.254;10.352;2022-07-06T05:55:26;4.77;;;2.17;;
7047;SDS011;3565;53.254;10.352;2022-07-06T05:57:55;4.17;;;2.00;;
7047;SDS011;3565;53.254;10.352;2022-07-06T06:00:25;5.03;;;2.03;;
7047;SDS011;3565;53.254;10.352;2022-07-06T06:02:56;4.23;;;1.97;;
7047;SDS011;3565;53.254;10.352;2022-07-06T06:05:23;5.73;;;2.03;;
7047;SDS011;3565;53.254;10.352;2022-07-06T06:07:52;4.77;;;1.97;;
7047;SDS011;3565;53.254;10.352;2022-07-06T06:10:21;4.37;;;1.90;;
7047;SDS011;3565;53.254;10.352;2022-07-06T06:12:51;5.50;;;2.00;;
7047;SDS011;3565;53.254;10.352;2022-07-06T06:15:20;3.03;;;1.70;;
7047;SDS011;3565;53.254;10.352;2022-07-06T06:17:49;3.73;;;1.63;;
7047;SDS011;3565;53.254;10.352;2022-07-06T06:20:18;7.70;;;2.00;;
7047;SDS011;3565;53.254;10.352;2022-07-06T06:22:47;4.47;;;1.73;;
7047;SDS011;3565;53.254;10.352;2022-07-06T06:25:18;2.30;;;1.93;;
7047;SDS011;3565;53.254;10.352;2022-07-06T06:27:48;5.03;;;1.80;;
7047;SDS011;3565;53.254;10.352;2022-07-06T06:30:17;5.17;;;1.83;;
7047;SDS011;3565;53.254;10.352;2022-07-06T06:32:46;3.63;;;1.60;;
7047;SDS011;3565;53.254;10.352;2022-07-06T06:35:15;3.87;;;1.80;;
7047;SDS011;3565;53.254;10.352;2022-07-06T06:37:44;2.87;;;1.30;;
7047;SDS011;3565;53.254;10.352;2022-07-06T06:40:13;3.43;;;1.47;;
7047;SDS011;3565;53.254;10.352;2022-07-06T06:42:42;3.83;;;1.43;;
7047;SDS011;3565;53.254;10.352;2022-07-06T06:45:11;2.57;;;1.30;;
7047;SDS011;3565;53.254;10.352;2022-07-06T06:47:39;3.33;;;1.30;;
7047;SDS011;3565;53.254;10.352;2022-07-06T06:50:09;2.93;;;1.30;;
7047;SDS011;3565;53.254;10.352;2022-07-06T06:52:37;3.30;;;1.40;;
7047;SDS011;3565;53.254;10.352;2022-07-06T06:55:08;3.53;;;1.60;;
7047;SDS011;3565;53.254;10.352;2022-07-06T06:57:37;3.87;;;1.90;;
7047;SDS011;3565;53.254;10.352;2022-07-06T07:00:07;3.10;;;1.20;;
7047;SDS011;3565;53.254;10.352;2022-07-06T07:02:37;2.30;;;1.50;;
7047;SDS011;3565;53.254;10.352;2022-07-06T07:05:07;2.10;;;1.30;;
7047;SDS011;3565;53.254;10.352;2022-07-06T07:07:36;2.87;;;1.30;;
7047;SDS011;3565;53.254;10.352;2022-07-06T07:10:06;5.17;;;1.47;;
7047;SDS011;3565;53.254;10.352;2022-07-06T07:12:41;3.63;;;1.20;;
7047;SDS011;3565;53.254;10.352;2022-07-06T07:15:13;2.07;;;1.10;;
7047;SDS011;3565;53.254;10.352;2022-07-06T07:17:43;3.90;;;1.23;;
7047;SDS011;3565;53.254;10.352;2022-07-06T07:20:12;1.97;;;1.10;;
7047;SDS011;3565;53.254;10.352;2022-07-06T07:22:41;2.17;;;1.10;;
7047;SDS011;3565;53.254;10.352;2022-07-06T07:25:10;5.50;;;1.40;;
7047;SDS011;3565;53.254;10.352;2022-07-06T07:27:39;3.93;;;1.50;;
7047;SDS011;3565;53.254;10.352;2022-07-06T07:30:10;3.00;;;1.20;;
7047;SDS011;3565;53.254;10.352;2022-07-06T07:32:39;3.73;;;1.30;;
7047;SDS011;3565;53.254;10.352;2022-07-06T07:35:08;5.00;;;1.30;;
7047;SDS011;3565;53.254;10.352;2022-07-06T07:37:37;4.90;;;1.50;;
7047;SDS011;3565;53.254;10.352;2022-07-06T07:40:08;1.87;;;1.23;;
7047;SDS011;3565;53.254;10.352;2022-07-06T07:42:36;3.47;;;1.20;;
7047;SDS011;3565;53.254;10.352;2022-07-06T07:45:07;5.67;;;1.43;;
7047;SDS011;3565;53.254;10.352;2022-07-06T07:47:37;3.57;;;1.50;;
7047;SDS011;3565;53.254;10.352;2022-07-06T07:50:07;4.63;;;1.43;;
7047;SDS011;3565;53.254;10.352;2022-07-06T07:52:37;4.73;;;1.50;;
7047;SDS011;3565;53.254;10.352;2022-07-06T07:55:07;3.30;;;1.40;;
7047;SDS011;3565;53.254;10.352;2022-07-06T07:57:37;4.03;;;1.40;;
7047;SDS011;3565;53.254;10.352;2022-07-06T08:00:07;2.17;;;1.20;;
7047;SDS011;3565;53.254;10.352;2022-07-06T08:02:37;4.17;;;1.40;;
7047;SDS011;3565;53.254;10.352;2022-07-06T08:05:07;3.40;;;1.30;;
7047;SDS011;3565;53.254;10.352;2022-07-06T08:07:39;3.73;;;1.30;;
7047;SDS011;3565;53.254;10.352;2022-07-06T08:10:09;4.17;;;1.50;;
7047;SDS011;3565;53.254;10.352;2022-07-06T08:12:38;3.67;;;1.50;;
7047;SDS011;3565;53.254;10.352;2022-07-06T08:15:08;3.93;;;1.40;;
7047;SDS011;3565;53.254;10.352;2022-07-06T08:17:37;6.07;;;1.30;;
7047;SDS011;3565;53.254;10.352;2022-07-06T08:20:07;3.77;;;1.57;;
7047;SDS011;3565;53.254;10.352;2022-07-06T08:22:37;4.00;;;1.40;;
7047;SDS011;3565;53.254;10.352;2022-07-06T08:25:07;2.80;;;1.20;;
7047;SDS011;3565;53.254;10.352;2022-07-06T08:27:37;2.77;;;1.30;;
7047;SDS011;3565;53.254;10.352;2022-07-06T08:30:08;2.60;;;1.30;;
7047;SDS011;3565;53.254;10.352;2022-07-06T08:32:38;2.23;;;1.20;;
7047;SDS011;3565;53.254;10.352;2022-07-06T08:35:08;3.07;;;1.30;;
7047;SDS011;3565;53.254;10.352;2022-07-06T08:37:38;2.57;;;1.33;;
7047;SDS011;3565;53.254;10.352;2022-07-06T08:40:08;2.33;;;1.30;;
7047;SDS011;3565;53.254;10.352;2022-07-06T08:42:37;3.33;;;1.33;;
7047;SDS011;3565;53.254;10.352;2022-07-06T08:45:07;2.40;;;1.20;;
7047;SDS011;3565;53.254;10.352;2022-07-06T08:47:37;2.47;;;1.10;;
7047;SDS011;3565;53.254;10.352;2022-07-06T08:50:08;1.73;;;1.23;;
7047;SDS011;3565;53.254;10.352;2022-07-06T08:52:38;3.17;;;1.17;;
7047;SDS011;3565;53.254;10.352;2022-07-06T08:55:08;2.30;;;1.33;;
7047;SDS011;3565;53.254;10.352;2022-07-06T08:57:38;4.37;;;1.33;;
7047;SDS011;3565;53.254;10.352;2022-07-06T09:00:10;2.07;;;1.17;;
7047;SDS011;3565;53.254;10.352;2022-07-06T09:02:40;3.43;;;1.00;;
7047;SDS011;3565;53.254;10.352;2022-07-06T09:05:10;5.53;;;1.37;;
7047;SDS011;3565;53.254;10.352;2022-07-06T09:07:41;5.03;;;1.53;;
7047;SDS011;3565;53.254;10.352;2022-07-06T09:10:12;3.77;;;1.37;;
7047;SDS011;3565;53.254;10.352;2022-07-06T09:12:41;3.80;;;1.60;;
7047;SDS011;3565;53.254;10.352;2022-07-06T09:15:10;3.30;;;1.30;;
7047;SDS011;3565;53.254;10.352;2022-07-06T09:17:40;1.83;;;1.10;;
7047;SDS011;3565;53.254;10.352;2022-07-06T09:20:11;4.43;;;1.23;;
7047;SDS011;3565;53.254;10.352;2022-07-06T09:22:40;3.23;;;1.17;;
7047;SDS011;3565;53.254;10.352;2022-07-06T09:25:10;3.03;;;1.20;;
7047;SDS011;3565;53.254;10.352;2022-07-06T09:27:41;3.73;;;1.13;;
7047;SDS011;3565;53.254;10.352;2022-07-06T09:30:14;4.97;;;1.30;;
7047;SDS011;3565;53.254;10.352;2022-07-06T09:32:43;2.97;;;1.10;;
7047;SDS011;3565;53.254;10.352;2022-07-06T09:35:19;3.17;;;1.10;;
7047;SDS011;3565;53.254;10.352;2022-07-06T09:38:00;1.43;;;1.00;;
7047;SDS011;3565;53.254;10.352;2022-07-06T09:40:31;1.10;;;0.97;;
7047;SDS011;3565;53.254;10.352;2022-07-06T09:43:07;4.80;;;0.90;;
7047;SDS011;3565;53.254;10.352;2022-07-06T09:45:41;2.50;;;1.07;;
7047;SDS011;3565;53.254;10.352;2022-07-06T09:48:12;1.67;;;1.10;;
7047;SDS011;3565;53.254;10.352;2022-07-06T09:50:44;2.27;;;1.20;;
7047;SDS011;3565;53.254;10.352;2022-07-06T09:53:14;2.33;;;1.00;;
7047;SDS011;3565;53.254;10.352;2022-07-06T09:55:43;3.33;;;1.00;;
7047;SDS011;3565;53.254;10.352;2022-07-06T09:58:13;2.53;;;1.13;;
7047;SDS011;3565;53.254;10.352;2022-07-06T10:00:43;2.10;;;1.17;;
7047;SDS011;3565;53.254;10.352;2022-07-06T10:03:13;2.93;;;1.00;;
7047;SDS011;3565;53.254;10.352;2022-07-06T10:05:44;1.57;;;1.00;;
7047;SDS011;3565;53.254;10.352;2022-07-06T10:08:14;1.23;;;1.00;;
7047;SDS011;3565;53.254;10.352;2022-07-06T10:10:44;2.10;;;1.00;;
7047;SDS011;3565;53.254;10.352;2022-07-06T10:13:12;1.90;;;1.00;;
7047;SDS011;3565;53.254;10.352;2022-07-06T10:15:44;1.50;;;1.00;;
7047;SDS011;3565;53.254;10.352;2022-07-06T10:18:13;1.67;;;1.00;;
7047;SDS011;3565;53.254;10.352;2022-07-06T10:20:43;1.23;;;0.93;;
7047;SDS011;3565;53.254;10.352;2022-07-06T10:23:11;1.30;;;1.20;;
7047;SDS011;3565;53.254;10.352;2022-07-06T10:25:40;1.93;;;0.93;;
7047;SDS011;3565;53.254;10.352;2022-07-06T10:28:11;1.20;;;1.10;;
7047;SDS011;3565;53.254;10.352;2022-07-06T10:30:41;2.80;;;1.20;;
7047;SDS011;3565;53.254;10.352;2022-07-06T10:33:11;1.67;;;0.93;;
7047;SDS011;3565;53.254;10.352;2022-07-06T10:35:43;1.70;;;1.03;;
7047;SDS011;3565;53.254;10.352;2022-07-06T10:38:12;2.07;;;1.00;;
7047;SDS011;3565;53.254;10.352;2022-07-06T10:40:41;1.77;;;1.00;;
7047;SDS011;3565;53.254;10.352;2022-07-06T10:43:34;4.13;;;0.97;;
7047;SDS011;3565;53.254;10.352;2022-07-06T10:46:08;2.23;;;1.00;;
7047;SDS011;3565;53.254;10.352;2022-07-06T10:48:40;2.07;;;1.00;;
7047;SDS011;3565;53.254;10.352;2022-07-06T10:51:25;2.07;;;1.00;;
7047;SDS011;3565;53.254;10.352;2022-07-06T10:53:57;1.63;;;1.10;;
7047;SDS011;3565;53.254;10.352;2022-07-06T10:56:32;1.40;;;0.90;;
7047;SDS011;3565;53.254;10.352;2022-07-06T10:59:02;1.37;;;0.87;;
7047;SDS011;3565;53.254;10.352;2022-07-06T11:01:37;1.00;;;0.90;;
7047;SDS011;3565;53.254;10.352;2022-07-06T11:04:07;1.77;;;1.03;;
7047;SDS011;3565;53.254;10.352;2022-07-06T11:06:37;2.20;;;1.10;;
7047;SDS011;3565;53.254;10.352;2022-07-06T11:09:07;2.57;;;1.03;;
7047;SDS011;3565;53.254;10.352;2022-07-06T11:11:43;2.93;;;1.33;;
7047;SDS011;3565;53.254;10.352;2022-07-06T11:14:14;3.87;;;1.63;;
7047;SDS011;3565;53.254;10.352;2022-07-06T11:17:00;3.63;;;1.10;;
7047;SDS011;3565;53.254;10.352;2022-07-06T11:19:30;1.87;;;0.90;;
7047;SDS011;3565;53.254;10.352;2022-07-06T11:22:04;2.37;;;0.80;;
7047;SDS011;3565;53.254;10.352;2022-07-06T11:24:35;2.50;;;0.90;;
7047;SDS011;3565;53.254;10.352;2022-07-06T11:27:05;2.67;;;0.90;;
7047;SDS011;3565;53.254;10.352;2022-07-06T11:29:35;2.47;;;0.80;;
7047;SDS011;3565;53.254;10.352;2022-07-06T11:32:06;0.93;;;0.83;;
7047;SDS011;3565;53.254;10.352;2022-07-06T11:34:37;3.00;;;1.10;;
7047;SDS011;3565;53.254;10.352;2022-07-06T11:37:09;2.17;;;0.80;;
7047;SDS011;3565;53.254;10.352;2022-07-06T11:39:39;0.90;;;0.90;;
7047;SDS011;3565;53.254;10.352;2022-07-06T11:42:09;1.97;;;0.90;;
7047;SDS011;3565;53.254;10.352;2022-07-06T11:44:39;3.87;;;1.30;;
7047;SDS011;3565;53.254;10.352;2022-07-06T11:47:09;1.57;;;0.90;;
7047;SDS011;3565;53.254;10.352;2022-07-06T11:49:39;1.93;;;1.03;;
7047;SDS011;3565;53.254;10.352;2022-07-06T11:52:11;1.17;;;0.80;;
7047;SDS011;3565;53.254;10.352;2022-07-06T11:54:41;1.40;;;1.10;;
7047;SDS011;3565;53.254;10.352;2022-07-06T11:57:10;1.50;;;1.20;;
7047;SDS011;3565;53.254;10.352;2022-07-06T11:59:40;1.33;;;1.00;;
7047;SDS011;3565;53.254;10.352;2022-07-06T12:02:11;8.93;;;1.30;;
7047;SDS011;3565;53.254;10.352;2022-07-06T12:04:42;2.27;;;1.03;;
7047;SDS011;3565;53.254;10.352;2022-07-06T12:07:12;3.77;;;1.27;;
7047;SDS011;3565;53.254;10.352;2022-07-06T12:09:43;4.50;;;1.17;;
7047;SDS011;3565;53.254;10.352;2022-07-06T12:12:13;3.43;;;1.20;;
7047;SDS011;3565;53.254;10.352;2022-07-06T12:14:43;2.07;;;0.97;;
7047;SDS011;3565;53.254;10.352;2022-07-06T12:17:13;3.20;;;1.00;;
7047;SDS011;3565;53.254;10.352;2022-07-06T12:19:42;1.37;;;0.97;;
7047;SDS011;3565;53.254;10.352;2022-07-06T12:22:11;0.97;;;0.70;;
7047;SDS011;3565;53.254;10.352;2022-07-06T12:24:42;0.83;;;0.80;;
7047;SDS011;3565;53.254;10.352;2022-07-06T12:27:13;1.80;;;0.90;;
7047;SDS011;3565;53.254;10.352;2022-07-06T12:29:44;1.53;;;1.00;;
7047;SDS011;3565;53.254;10.352;2022-07-06T12:32:15;1.10;;;1.00;;
7047;SDS011;3565;53.254;10.352;2022-07-06T12:34:45;2.60;;;0.97;;
7047;SDS011;3565;53.254;10.352;2022-07-06T12:37:14;1.27;;;0.80;;
7047;SDS011;3565;53.254;10.352;2022-07-06T12:39:44;1.90;;;1.00;;
7047;SDS011;3565;53.254;10.352;2022-07-06T12:42:16;1.70;;;0.90;;
7047;SDS011;3565;53.254;10.352;2022-07-06T12:44:47;1.50;;;1.00;;
7047;SDS011;3565;53.254;10.352;2022-07-06T12:47:17;3.77;;;0.90;;
7047;SDS011;3565;53.254;10.352;2022-07-06T12:49:48;2.13;;;1.00;;
7047;SDS011;3565;53.254;10.352;2022-07-06T12:52:18;1.73;;;0.90;;
7047;SDS011;3565;53.254;10.352;2022-07-06T12:54:47;2.30;;;0.80;;
7047;SDS011;3565;53.254;10.352;2022-07-06T12:57:17;1.87;;;0.90;;
7047;SDS011;3565;53.254;10.352;2022-07-06T12:59:54;2.33;;;1.00;;
7047;SDS011;3565;53.254;10.352;2022-07-06T13:02:24;3.77;;;1.10;;
7047;SDS011;3565;53.254;10.352;2022-07-06T13:04:58;1.50;;;1.10;;
7047;SDS011;3565;53.254;10.352;2022-07-06T13:07:28;2.57;;;0.97;;
7047;SDS011;3565;53.254;10.352;2022-07-06T13:09:58;3.80;;;1.10;;
7047;SDS011;3565;53.254;10.352;2022-07-06T13:12:27;3.40;;;1.23;;
7047;SDS011;3565;53.254;10.352;2022-07-06T13:14:56;1.47;;;1.00;;
7047;SDS011;3565;53.254;10.352;2022-07-06T13:17:25;2.73;;;0.90;;
7047;SDS011;3565;53.254;10.352;2022-07-06T13:19:54;2.67;;;0.90;;
7047;SDS011;3565;53.254;10.352;2022-07-06T13:22:23;2.53;;;1.17;;
7047;SDS011;3565;53.254;10.352;2022-07-06T13:24:52;1.93;;;1.00;;
7047;SDS011;3565;53.254;10.352;2022-07-06T13:27:20;1.43;;;1.00;;
7047;SDS011;3565;53.254;10.352;2022-07-06T13:29:49;3.67;;;1.10;;
7047;SDS011;3565;53.254;10.352;2022-07-06T13:32:18;2.73;;;0.80;;
7047;SDS011;3565;53.254;10.352;2022-07-06T13:34:48;3.37;;;1.30;;
7047;SDS011;3565;53.254;10.352;2022-07-06T13:37:17;2.30;;;0.90;;
7047;SDS011;3565;53.254;10.352;2022-07-06T13:39:47;1.30;;;0.80;;
7047;SDS011;3565;53.254;10.352;2022-07-06T13:42:16;4.07;;;1.17;;
7047;SDS011;3565;53.254;10.352;2022-07-06T13:44:45;2.07;;;0.93;;
7047;SDS011;3565;53.254;10.352;2022-07-06T13:47:14;2.77;;;1.00;;
7047;SDS011;3565;53.254;10.352;2022-07-06T13:49:43;1.80;;;1.00;;
7047;SDS011;3565;53.254;10.352;2022-07-06T13:52:13;2.23;;;0.90;;
7047;SDS011;3565;53.254;10.352;2022-07-06T13:54:42;2.77;;;1.20;;
7047;SDS011;3565;53.254;10.352;2022-07-06T13:57:11;2.30;;;1.00;;
7047;SDS011;3565;53.254;10.352;2022-07-06T13:59:40;2.40;;;0.90;;
7047;SDS011;3565;53.254;10.352;2022-07-06T14:02:09;2.77;;;1.13;;
7047;SDS011;3565;53.254;10.352;2022-07-06T14:04:40;2.37;;;1.00;;
7047;SDS011;3565;53.254;10.352;2022-07-06T14:07:09;2.47;;;1.10;;
7047;SDS011;3565;53.254;10.352;2022-07-06T14:09:38;2.97;;;1.03;;
7047;SDS011;3565;53.254;10.352;2022-07-06T14:12:08;2.53;;;1.00;;
7047;SDS011;3565;53.254;10.352;2022-07-06T14:14:37;1.63;;;0.90;;
7047;SDS011;3565;53.254;10.352;2022-07-06T14:17:06;1.20;;;0.80;;
7047;SDS011;3565;53.254;10.352;2022-07-06T14:19:35;0.97;;;0.80;;
7047;SDS011;3565;53.254;10.352;2022-07-06T14:22:04;1.50;;;0.90;;
7047;SDS011;3565;53.254;10.352;2022-07-06T14:24:33;2.10;;;0.90;;
7047;SDS011;3565;53.254;10.352;2022-07-06T14:27:02;2.10;;;0.90;;
7047;SDS011;3565;53.254;10.352;2022-07-06T14:29:32;2.50;;;1.00;;
7047;SDS011;3565;53.254;10.352;2022-07-06T14:32:02;2.00;;;0.90;;
7047;SDS011;3565;53.254;10.352;2022-07-06T14:34:30;3.40;;;1.00;;
7047;SDS011;3565;53.254;10.352;2022-07-06T14:36:58;1.90;;;1.00;;
7047;SDS011;3565;53.254;10.352;2022-07-06T14:39:26;1.60;;;0.80;;
7047;SDS011;3565;53.254;10.352;2022-07-06T14:41:54;2.00;;;0.90;;
7047;SDS011;3565;53.254;10.352;2022-07-06T14:44:24;1.93;;;1.20;;
7047;SDS011;3565;53.254;10.352;2022-07-06T14:46:53;1.73;;;0.90;;
7047;SDS011;3565;53.254;10.352;2022-07-06T14:49:22;1.93;;;1.00;;
7047;SDS011;3565;53.254;10.352;2022-07-06T14:51:51;2.77;;;1.00;;
7047;SDS011;3565;53.254;10.352;2022-07-06T14:54:19;1.07;;;0.87;;
7047;SDS011;3565;53.254;10.352;2022-07-06T14:56:48;1.97;;;1.07;;
7047;SDS011;3565;53.254;10.352;2022-07-06T14:59:18;1.73;;;1.10;;
7047;SDS011;3565;53.254;10.352;2022-07-06T15:01:47;1.53;;;1.00;;
7047;SDS011;3565;53.254;10.352;2022-07-06T15:04:16;1.73;;;0.80;;
7047;SDS011;3565;53.254;10.352;2022-07-06T15:06:44;2.80;;;0.80;;
7047;SDS011;3565;53.254;10.352;2022-07-06T15:09:13;1.77;;;0.90;;
7047;SDS011;3565;53.254;10.352;2022-07-06T15:11:42;2.43;;;0.93;;
7047;SDS011;3565;53.254;10.352;2022-07-06T15:14:11;3.47;;;1.00;;
7047;SDS011;3565;53.254;10.352;2022-07-06T15:16:43;1.33;;;0.90;;
7047;SDS011;3565;53.254;10.352;2022-07-06T15:19:12;1.97;;;0.90;;